• Join FlightAware (Why Join?)
  • Login
  • US Flag 
06:58PM EDT


 

Airport Tracker/Info


-or-


 

Live Flight TrackerFlight Track Log ✈ UPS1122 ✈ 03-May-2013 ✈ KPHL - KBDL

Flight Track Log - Related Links

Times and Time Zones

All times are in EDT time to prevent confusion due to time zone crossing. See the UPS1122 flight status page for this flight to view local times or setup timezone preferences in your user account.

Time Position Orientation Groundspeed Altitude Reporting Facility
EDT Latitude Longitude Course Direction KTS MPH feet Rate Location/Type
03:33AM 39.8653 -75.2524 250° West 144 166 200  Level FlightAware ADS-B
03:33AM 39.8663 -75.2473 76° East 146 168 600 3,300 Climbing FlightAware ADS-B
03:33AM 39.8666 -75.2445 82° East 149 171 700 2,520 Climbing FlightAware ADS-B
03:33AM 39.8668 -75.2411 86° East 154 177 900 2,520 Climbing FlightAware ADS-B
03:33AM 39.8668 -75.2379 90° East 157 181 1,000 1,800 Climbing FlightAware ADS-B
03:34AM 39.8663 -75.2316 96° East 164 189 1,200 2,280 Climbing FlightAware ADS-B
03:34AM 39.8639 -75.2166 102° East 175 201 1,800 2,040 Climbing FlightAware ADS-B
03:34AM 39.8626 -75.2074 100° East 188 216 2,000 2,220 Climbing FlightAware ADS-B
03:34AM 39.8603 -75.1899 100° East 193 222 2,700 2,280 Climbing FlightAware ADS-B
03:34AM 39.8580 -75.1715 99° East 206 237 3,200 1,740 Climbing FlightAware ADS-B
03:35AM 39.8556 -75.1519 99° East 227 261 3,600 1,860 Climbing FlightAware ADS-B
03:35AM 39.8543 -75.1416 99° East 236 272 3,900 2,400 Climbing FlightAware ADS-B
03:35AM 39.8529 -75.1306 99° East 241 277 4,200 2,580 Climbing FlightAware ADS-B
03:35AM 39.8500 -75.1086 100° East 248 285 4,900 2,760 Climbing FlightAware ADS-B
03:35AM 39.8468 -75.0850 100° East 253 291 5,600 3,060 Climbing FlightAware ADS-B
03:36AM 39.8433 -75.0604 100° East 258 297 6,500 3,600 Climbing FlightAware ADS-B
03:36AM 39.8398 -75.0347 100° East 262 302 7,600 3,780 Climbing FlightAware ADS-B
03:36AM 39.8361 -75.0084 100° East 267 307 8,600 3,540 Climbing FlightAware ADS-B
03:37AM 39.8325 -74.9838 101° East 269 310 9,500 3,240 Climbing FlightAware ADS-B
03:37AM 39.8251 -74.9345 101° East 280 322 11,100 2,220 Climbing FlightAware ADS-B
03:37AM 39.8193 -74.8941 101° East 317 365 11,500 900 Climbing FlightAware ADS-B
03:38AM 39.8110 -74.8325 100° East 358 412 11,900 2,700 Climbing FlightAware ADS-B
03:38AM 39.8024 -74.7725 101° East 338 389 14,200 4,440 Climbing FlightAware ADS-B
03:39AM 39.8013 -74.7516 94° East 335 386 14,800 3,420 Climbing FlightAware ADS-B
03:39AM 39.8030 -74.7331 83° East 333 383 15,300 3,120 Climbing FlightAware ADS-B
03:39AM 39.8066 -74.7186 72° East 331 381 15,700 2,460 Climbing FlightAware ADS-B
03:39AM 39.8091 -74.7117 65° Northeast 330 380 15,800 2,520 Climbing FlightAware ADS-B
03:39AM 39.8115 -74.7066 59° Northeast 329 379 16,000 3,300 Climbing FlightAware ADS-B
03:39AM 39.8170 -74.6967 54° Northeast 329 379 16,300 2,400 Climbing FlightAware ADS-B
03:39AM 39.8264 -74.6847 44° Northeast 331 381 16,600 2,220 Climbing FlightAware ADS-B
03:40AM 39.8545 -74.6555 39° Northeast 340 391 17,500 2,220 Climbing FlightAware ADS-B
03:40AM 39.8939 -74.6188 36° Northeast 354 407 18,600 2,280 Climbing FlightAware ADS-B
03:41AM 39.9350 -74.5815 35° Northeast 362 417 19,800 2,280 Climbing FlightAware ADS-B
03:41AM 39.9771 -74.5432 35° Northeast 367 422 20,900 1,200 Climbing FlightAware ADS-B
03:42AM 40.0197 -74.5044 35° Northeast 375 432 21,000 60 Climbing FlightAware ADS-B
03:42AM 40.0636 -74.4644 35° Northeast 375 432 21,000 720 Level FlightAware ADS-B
03:43AM 40.1075 -74.4243 35° Northeast 384 442 21,800 1,740 Climbing FlightAware ADS-B
03:43AM 40.1522 -74.3832 35° Northeast 391 450 22,800 2,040 Climbing FlightAware ADS-B
03:44AM 40.1991 -74.3402 35° Northeast 398 458 23,900 1,920 Climbing FlightAware ADS-B
03:44AM 40.2446 -74.2982 35° Northeast 403 464 24,800 1,080 Climbing FlightAware ADS-B
03:45AM 40.2910 -74.2553 35° Northeast 399 459 25,000 180 Climbing FlightAware ADS-B
03:45AM 40.3361 -74.2136 35° Northeast 396 456 25,000  Level FlightAware ADS-B
03:46AM 40.3810 -74.1718 35° Northeast 395 455 25,000  Level FlightAware ADS-B
03:46AM 40.4268 -74.1290 35° Northeast 396 456 25,000  Level FlightAware ADS-B
03:47AM 40.4718 -74.0870 35° Northeast 397 457 25,000  Level FlightAware ADS-B
03:47AM 40.5174 -74.0444 35° Northeast 397 457 25,000  Level FlightAware ADS-B
03:48AM 40.5624 -74.0021 36° Northeast 397 457 25,000  Level FlightAware ADS-B
03:48AM 40.6075 -73.9597 36° Northeast 396 456 25,000  Level FlightAware ADS-B
03:49AM 40.6524 -73.9173 36° Northeast 395 455 25,000  Level FlightAware ADS-B
03:49AM 40.6971 -73.8751 36° Northeast 392 451 25,000  Level FlightAware ADS-B
03:50AM 40.7421 -73.8325 36° Northeast 392 451 25,000  Level FlightAware ADS-B
03:50AM 40.7863 -73.7906 36° Northeast 391 450 25,000  Level FlightAware ADS-B
03:51AM 40.8304 -73.7486 36° Northeast 389 448 25,000  Level FlightAware ADS-B
03:51AM 40.8748 -73.7065 36° Northeast 388 447 25,000  Level FlightAware ADS-B
03:52AM 40.9192 -73.6644 36° Northeast 388 447 25,000 -240 Level FlightAware ADS-B
03:52AM 40.9635 -73.6224 36° Northeast 394 453 24,800 -900 Descending FlightAware ADS-B
03:53AM 41.0083 -73.5801 35° Northeast 391 450 24,100 -1,800 Descending FlightAware ADS-B
03:53AM 41.0525 -73.5383 35° Northeast 382 440 23,000 -2,220 Descending FlightAware ADS-B
03:54AM 41.0954 -73.4976 36° Northeast 375 432 21,900 -2,340 Descending FlightAware ADS-B
03:54AM 41.1376 -73.4576 36° Northeast 366 421 20,700 -2,340 Descending FlightAware ADS-B
03:55AM 41.1789 -73.4186 35° Northeast 358 412 19,600 -2,220 Descending FlightAware ADS-B
03:55AM 41.2189 -73.3805 36° Northeast 350 403 18,500 -2,100 Descending FlightAware ADS-B
03:56AM 41.2550 -73.3460 36° Northeast 344 396 17,500 -2,160 Descending FlightAware
03:56AM 41.2625 -73.3389 35° Northeast 343 395 17,300 -2,940 Descending FlightAware ADS-B
03:56AM 41.2980 -73.3050 36° Northeast 332 382 15,800 -3,540 Descending FlightAware
03:56AM 41.3167 -73.2872 36° Northeast 329 379 14,800 -3,600 Descending FlightAware ADS-B
03:57AM 41.3540 -73.2510 36° Northeast 324 373 13,100 -1,500 Descending FlightAware
03:58AM 41.3990 -73.2100 34° Northeast 324 373 13,000 -120 Descending FlightAware
03:58AM 41.4400 -73.1710 35° Northeast 324 373 13,000  Level FlightAware
03:59AM 41.4820 -73.1320 35° Northeast 324 373 13,000 -1,800 Level FlightAware
04:00AM 41.5378 -73.0808 35° Northeast 280 322 10,600 -2,700 Descending Boston Center
04:00AM 41.5631 -73.0617 30° Northeast 276 318 9,800 -2,340 Descending Boston Center
04:01AM 41.5986 -73.0314 32° Northeast 252 290 8,300 -2,940 Descending Boston Center
04:01AM 41.6319 -73.0039 32° Northeast 256 295 6,900 -2,460 Descending Boston Center
04:02AM 41.6572 -72.9819 33° Northeast 254 292 5,800 -1,620 Descending Boston Center
04:02AM 41.6864 -72.9600 29° Northeast 256 295 5,300 -1,140 Descending Boston Center
04:03AM 41.7178 -72.9350 31° Northeast 250 288 4,700 -1,200 Descending Boston Center
04:03AM 41.7492 -72.9103 30° Northeast 250 288 4,100 -1,200 Descending Boston Center
04:04AM 41.7681 -72.8936 33° Northeast 240 276 3,600 -1,140 Descending Boston Center
04:04AM 41.7994 -72.8689 30° Northeast 240 276 3,000 -600 Descending Boston Center
04:05AM 41.8203 -72.8469 38° Northeast 225 259 3,000 -300 Level Boston Center
04:05AM 41.8433 -72.8136 47° Northeast 216 249 2,700 -720 Descending Boston Center
04:06AM 41.8581 -72.7997 35° Northeast 180 207 2,300 -840 Descending Boston Center
04:06AM 41.8769 -72.7719 48° Northeast 182 209 1,900 -780 Descending Boston Center
04:07AM 41.8853 -72.7636 37° Northeast 154 177 1,600 -840 Descending Boston Center
04:07AM 41.9019 -72.7386 48° Northeast 148 170 1,100 -720 Descending Boston Center
04:08AM 41.9081 -72.7303 45° Northeast 128 147 900 -600 Descending Boston Center
04:08AM 41.9269 -72.7081 41° Northeast 124 143 500 -240 Descending Boston Center
04:09AM 41.9519 -72.6744 45° Northeast 124 143 500  Level Boston Center
04:11AM 41.9333 -72.6833 217° Southwest  Level FlightAware Approximate
04:18AM 41.9392 -72.6834 217° Southwest  Level Estimated
04:19AM 41.9333 -72.6833 217° Southwest  Level FlightAware Approximate
04:20AM 41.9392 -72.6834 217° Southwest  Level Estimated
04:21AM 41.9333 -72.6833 217° Southwest  Level FlightAware Approximate
04:22AM 41.9392 -72.6834 217° Southwest  Level Estimated
04:23AM 41.9333 -72.6833 217° Southwest  Level FlightAware Approximate